Courage — NA31 — position and weather

sailwx.info

Track history (hours):
 
Tides and Currents Weather Stations Pressure Air Temp Water Temp Dewpoint Dewpoint Depression Visibility Wind Speed Wind Dir Waves Ship Positions

Courage

Last reported at 2018-Jul-17 01:16 UTC. Time now 2018-Jul-17 11:35 UTC.
Position N 41°10' W 072°36'.

Length 14 m.

Type: Sailing vessel. MMSI: 369970072.

Date/timePositionNaut miles runAvg speedWind from/ knotsBaromVisibWave heightAir tempDewpointWater temp
2018-Jul-17 01:16N 41°10' W 072°36'3 6.7
2018-Jul-17 00:50N 41°10' W 072°32'2 6.7
2018-Jul-17 00:29N 41°11' W 072°29'7 6.2
2018-Jul-16 23:18N 41°13' W 072°20'  
2018-Jul-12 08:09N 41°15' W 072°14'7 5.8
2018-Jul-12 06:59N 41°12' W 072°23'3 6.8
2018-Jul-12 06:30N 41°11' W 072°27'0 0.7
2018-Jul-12 06:00N 41°11' W 072°27'1 2.1
2018-Jul-12 05:30N 41°12' W 072°26'1 2.1
2018-Jul-12 04:58N 41°13' W 072°25'1 2.5
2018-Jul-12 04:30N 41°13' W 072°23'2 3.5
2018-Jul-12 03:56N 41°14' W 072°21'2 3.1
2018-Jul-12 03:27N 41°14' W 072°19'2 3.4
2018-Jul-12 02:57N 41°15' W 072°17'125 4.1
2018-Jul-10 20:51N 39°33' W 073°53'3 7.1
2018-Jul-10 20:29N 39°32' W 073°55'4 6.9
2018-Jul-10 19:57N 39°29' W 073°59'3 7.1
2018-Jul-10 19:30N 39°27' W 074°02'45 5.9
2018-Jul-10 11:51N 38°53' W 074°41'9 5.9
2018-Jul-10 10:23N 38°50' W 074°51'5 5.8
2018-Jul-10 09:28N 38°50' W 074°58'15 4.9
2018-Jul-10 06:20N 39°02' W 075°10'3 8.3
2018-Jul-10 06:00N 39°05' W 075°11'4 7.7
2018-Jul-10 05:30N 39°08' W 075°14'5 8.5
2018-Jul-10 04:52N 39°13' W 075°17'3 9.4
2018-Jul-10 04:30N 39°15' W 075°20'5 9.9
2018-Jul-10 04:00N 39°19' W 075°24'5 9.4
2018-Jul-10 03:30N 39°23' W 075°28'4 8.5
2018-Jul-10 03:00N 39°26' W 075°32'3 6.5
2018-Jul-10 02:30N 39°29' W 075°34'3 5.1
2018-Jul-10 01:59N 39°31' W 075°33'2 4.6
2018-Jul-10 01:29N 39°34' W 075°33'3 5.9
2018-Jul-10 01:00N 39°33' W 075°37'3 5.1
2018-Jul-10 00:30N 39°33' W 075°40'2 4.6
2018-Jul-10 00:01N 39°33' W 075°43'3 5.4
2018-Jul-09 23:30N 39°32' W 075°46'3 5.6
2018-Jul-09 22:59N 39°32' W 075°50'3 6.1
2018-Jul-09 22:30N 39°31' W 075°54'3 5.5
2018-Jul-09 21:59N 39°29' W 075°57'2 3.4
2018-Jul-09 21:30N 39°28' W 075°58'3 5.9
2018-Jul-09 20:55N 39°25' W 076°01'  
Track history (hours):
 
Tides and Currents Weather Stations Pressure Air Temp Water Temp Dewpoint Dewpoint Depression Visibility Wind Speed Wind Dir Waves Ship Positions

Courage

Last reported at 2018-Jul-17 01:16 UTC. Time now 2018-Jul-17 11:35 UTC.
Position N 41°10' W 072°36'.

Length 14 m.

Type: Sailing vessel. MMSI: 369970072.

Date/timePositionNaut miles runAvg speedWind from/ knotsBaromVisibWave heightAir tempDewpointWater temp
2018-Jul-17 01:16N 41°10' W 072°36'3 6.7
2018-Jul-17 00:50N 41°10' W 072°32'2 6.7
2018-Jul-17 00:29N 41°11' W 072°29'7 6.2
2018-Jul-16 23:18N 41°13' W 072°20'  
2018-Jul-12 08:09N 41°15' W 072°14'7 5.8
2018-Jul-12 06:59N 41°12' W 072°23'3 6.8
2018-Jul-12 06:30N 41°11' W 072°27'0 0.7
2018-Jul-12 06:00N 41°11' W 072°27'1 2.1
2018-Jul-12 05:30N 41°12' W 072°26'1 2.1
2018-Jul-12 04:58N 41°13' W 072°25'1 2.5
2018-Jul-12 04:30N 41°13' W 072°23'2 3.5
2018-Jul-12 03:56N 41°14' W 072°21'2 3.1
2018-Jul-12 03:27N 41°14' W 072°19'2 3.4
2018-Jul-12 02:57N 41°15' W 072°17'125 4.1
2018-Jul-10 20:51N 39°33' W 073°53'3 7.1
2018-Jul-10 20:29N 39°32' W 073°55'4 6.9
2018-Jul-10 19:57N 39°29' W 073°59'3 7.1
2018-Jul-10 19:30N 39°27' W 074°02'45 5.9
2018-Jul-10 11:51N 38°53' W 074°41'9 5.9
2018-Jul-10 10:23N 38°50' W 074°51'5 5.8
2018-Jul-10 09:28N 38°50' W 074°58'15 4.9
2018-Jul-10 06:20N 39°02' W 075°10'3 8.3
2018-Jul-10 06:00N 39°05' W 075°11'4 7.7
2018-Jul-10 05:30N 39°08' W 075°14'5 8.5
2018-Jul-10 04:52N 39°13' W 075°17'3 9.4
2018-Jul-10 04:30N 39°15' W 075°20'5 9.9
2018-Jul-10 04:00N 39°19' W 075°24'5 9.4
2018-Jul-10 03:30N 39°23' W 075°28'4 8.5
2018-Jul-10 03:00N 39°26' W 075°32'3 6.5
2018-Jul-10 02:30N 39°29' W 075°34'3 5.1
2018-Jul-10 01:59N 39°31' W 075°33'2 4.6
2018-Jul-10 01:29N 39°34' W 075°33'3 5.9
2018-Jul-10 01:00N 39°33' W 075°37'3 5.1
2018-Jul-10 00:30N 39°33' W 075°40'2 4.6
2018-Jul-10 00:01N 39°33' W 075°43'3 5.4
2018-Jul-09 23:30N 39°32' W 075°46'3 5.6
2018-Jul-09 22:59N 39°32' W 075°50'3 6.1
2018-Jul-09 22:30N 39°31' W 075°54'3 5.5
2018-Jul-09 21:59N 39°29' W 075°57'2 3.4
2018-Jul-09 21:30N 39°28' W 075°58'3 5.9
2018-Jul-09 20:55N 39°25' W 076°01'  

Dump ship's entire track history